createdAt,value
2022-11-27T00:00:59.421Z,0.00
2022-11-27T00:01:59.380Z,0.00
2022-11-27T00:02:59.458Z,0.00
2022-11-27T00:03:59.298Z,0.00
2022-11-27T00:04:59.192Z,0.00
2022-11-27T00:05:59.143Z,0.00
2022-11-27T00:06:59.085Z,0.00
2022-11-27T00:07:59.127Z,0.00
2022-11-27T00:08:58.972Z,0.00
2022-11-27T00:09:58.894Z,0.00
2022-11-27T00:10:58.843Z,0.00
2022-11-27T00:11:58.785Z,0.00
2022-11-27T00:12:58.742Z,0.00
2022-11-27T00:13:58.684Z,0.00
2022-11-27T00:14:58.609Z,0.00
2022-11-27T00:15:58.646Z,0.00
2022-11-27T00:16:58.495Z,0.00
2022-11-27T00:17:58.449Z,0.00
2022-11-27T00:18:58.376Z,0.00
2022-11-27T00:19:58.323Z,0.00
2022-11-27T00:20:58.258Z,0.00
2022-11-27T00:21:58.213Z,0.00
2022-11-27T00:22:58.163Z,0.00
2022-11-27T00:23:58.136Z,0.00
2022-11-27T00:24:58.028Z,0.00
2022-11-27T00:25:57.969Z,0.00
2022-11-27T00:26:57.975Z,0.00
2022-11-27T00:27:57.853Z,0.00
2022-11-27T00:28:57.798Z,0.00
2022-11-27T00:29:57.741Z,0.00
2022-11-27T00:30:57.716Z,0.00
2022-11-27T00:31:57.636Z,0.00
2022-11-27T00:32:57.579Z,0.00
2022-11-27T00:33:57.510Z,0.00
2022-11-27T00:34:57.451Z,0.00
2022-11-27T00:35:57.414Z,0.00
2022-11-27T00:36:57.350Z,0.00
2022-11-27T00:37:57.290Z,0.00
2022-11-27T00:38:57.223Z,0.00
2022-11-27T00:39:57.167Z,0.00
2022-11-27T00:40:57.101Z,0.00
2022-11-27T00:41:57.040Z,0.00
2022-11-27T00:42:56.992Z,0.00
2022-11-27T00:43:56.939Z,0.00
2022-11-27T00:44:56.874Z,0.00
2022-11-27T00:45:56.920Z,0.00
2022-11-27T00:46:56.811Z,0.00
2022-11-27T00:47:56.696Z,0.00
2022-11-27T00:48:56.658Z,0.00
2022-11-27T00:49:56.577Z,0.00
2022-11-27T00:50:56.535Z,0.00
2022-11-27T00:51:56.461Z,0.00
2022-11-27T00:52:56.421Z,0.00
2022-11-27T00:53:56.350Z,0.00
2022-11-27T00:54:56.288Z,0.00
2022-11-27T00:55:56.233Z,0.00
2022-11-27T00:56:56.181Z,0.00
2022-11-27T00:57:56.132Z,0.00
2022-11-27T00:58:56.060Z,0.00
2022-11-27T00:59:56.004Z,0.00
2022-11-27T01:00:55.946Z,0.00
2022-11-27T01:01:55.923Z,0.00
2022-11-27T01:02:55.882Z,0.00
2022-11-27T01:03:55.771Z,0.00
2022-11-27T01:04:55.730Z,0.00
2022-11-27T01:05:55.649Z,0.00
2022-11-27T01:06:55.613Z,0.00
2022-11-27T01:07:55.597Z,0.00
2022-11-27T01:08:55.482Z,0.00
2022-11-27T01:09:55.418Z,0.00
2022-11-27T01:10:55.372Z,0.00
2022-11-27T01:11:55.327Z,0.00
2022-11-27T01:12:55.262Z,0.00
2022-11-27T01:13:55.184Z,0.00
2022-11-27T01:14:55.132Z,0.00
2022-11-27T01:15:55.164Z,0.00
2022-11-27T01:16:55.014Z,0.00
2022-11-27T01:17:54.956Z,0.00
2022-11-27T01:18:54.906Z,0.00
2022-11-27T01:19:54.841Z,0.00
2022-11-27T01:20:54.790Z,0.00
2022-11-27T01:21:54.726Z,0.00
2022-11-27T01:22:54.663Z,0.00
2022-11-27T01:23:54.622Z,0.00
2022-11-27T01:24:54.548Z,0.00
2022-11-27T01:25:54.491Z,0.00
2022-11-27T01:26:54.430Z,0.00
2022-11-27T01:27:54.375Z,0.00
2022-11-27T01:28:54.332Z,0.00
2022-11-27T01:29:54.251Z,0.00
2022-11-27T01:30:54.254Z,0.00
2022-11-27T01:31:54.137Z,0.00
2022-11-27T01:32:54.082Z,0.00
2022-11-27T01:33:54.023Z,0.00
2022-11-27T01:34:54.568Z,0.00
2022-11-27T01:35:53.922Z,0.00
2022-11-27T01:36:53.847Z,0.00
2022-11-27T01:37:53.793Z,0.00
2022-11-27T01:38:53.729Z,0.00
2022-11-27T01:39:53.689Z,0.00
2022-11-27T01:40:53.619Z,0.00
2022-11-27T01:41:53.567Z,0.00
2022-11-27T01:42:53.491Z,0.00
2022-11-27T01:43:53.441Z,0.00
2022-11-27T01:44:53.397Z,0.00
2022-11-27T01:45:53.327Z,0.00
2022-11-27T01:46:53.308Z,0.00
2022-11-27T01:47:53.207Z,0.00
2022-11-27T01:48:53.151Z,0.00
2022-11-27T01:49:53.085Z,0.00
2022-11-27T01:50:53.043Z,0.00
2022-11-27T01:51:52.967Z,0.00
2022-11-27T01:52:52.915Z,0.00
2022-11-27T01:53:52.850Z,0.00
2022-11-27T01:54:52.796Z,0.00
2022-11-27T01:55:52.760Z,0.00
2022-11-27T01:56:52.691Z,0.00
2022-11-27T01:57:52.622Z,0.00
2022-11-27T01:58:52.563Z,0.00
2022-11-27T01:59:52.500Z,0.00
2022-11-27T02:00:52.447Z,0.00
2022-11-27T02:01:52.487Z,0.00
2022-11-27T02:02:52.379Z,0.00
2022-11-27T02:03:52.266Z,0.00
2022-11-27T02:04:52.216Z,0.00
2022-11-27T02:05:52.152Z,0.00
2022-11-27T02:06:52.111Z,0.00
2022-11-27T02:07:52.200Z,0.00
2022-11-27T02:08:52.004Z,0.00
2022-11-27T02:09:51.924Z,0.00
2022-11-27T02:10:51.868Z,0.00
2022-11-27T02:11:51.804Z,0.00
2022-11-27T02:12:51.756Z,0.00
2022-11-27T02:13:51.688Z,0.00
2022-11-27T02:14:51.621Z,0.00
2022-11-27T02:15:51.648Z,0.00
2022-11-27T02:16:51.512Z,0.00
2022-11-27T02:17:51.466Z,0.00
2022-11-27T02:18:51.390Z,0.00
2022-11-27T02:19:51.337Z,0.00
2022-11-27T02:20:51.269Z,0.00
2022-11-27T02:21:51.230Z,0.00
2022-11-27T02:22:51.168Z,0.00
2022-11-27T02:23:51.099Z,0.00
2022-11-27T02:24:51.041Z,0.00
2022-11-27T02:25:50.979Z,0.00
2022-11-27T02:26:50.942Z,0.00
2022-11-27T02:27:50.883Z,0.00
2022-11-27T02:28:50.815Z,0.00
2022-11-27T02:29:50.750Z,0.00
2022-11-27T02:30:50.743Z,0.00
2022-11-27T02:31:50.634Z,0.00
2022-11-27T02:32:50.587Z,0.00
2022-11-27T02:33:50.510Z,0.00
2022-11-27T02:34:50.453Z,0.00
2022-11-27T02:35:50.417Z,0.00
2022-11-27T02:36:50.347Z,0.00
2022-11-27T02:37:50.290Z,0.00
2022-11-27T02:38:50.220Z,0.00
2022-11-27T02:39:50.162Z,0.00
2022-11-27T02:40:50.109Z,0.00
2022-11-27T02:41:50.057Z,0.00
2022-11-27T02:42:50.081Z,0.00
2022-11-27T02:43:49.926Z,0.00
2022-11-27T02:44:49.872Z,0.00
2022-11-27T02:45:49.808Z,0.00
2022-11-27T02:46:49.870Z,0.00
2022-11-27T02:47:49.695Z,0.00
2022-11-27T02:48:49.667Z,0.00
2022-11-27T02:49:49.575Z,0.00
2022-11-27T02:50:49.538Z,0.00
2022-11-27T02:51:49.461Z,0.00
2022-11-27T02:52:49.400Z,0.00
2022-11-27T02:53:49.353Z,0.00
2022-11-27T02:54:49.282Z,0.00
2022-11-27T02:55:49.223Z,0.00
2022-11-27T02:56:49.204Z,0.00
2022-11-27T02:57:49.122Z,0.00
2022-11-27T02:58:49.148Z,0.00
2022-11-27T02:59:48.986Z,0.00
2022-11-27T03:00:48.946Z,0.00
2022-11-27T03:01:48.897Z,0.00
2022-11-27T03:02:48.842Z,0.00
2022-11-27T03:03:48.766Z,0.00
2022-11-27T03:04:48.692Z,0.00
2022-11-27T03:05:48.651Z,0.00
2022-11-27T03:06:48.579Z,0.00
2022-11-27T03:07:48.603Z,0.00
2022-11-27T03:08:48.462Z,0.00
2022-11-27T03:09:48.410Z,0.00
2022-11-27T03:10:48.342Z,0.00
2022-11-27T03:11:48.341Z,0.00
2022-11-27T03:12:48.218Z,0.00
2022-11-27T03:13:48.160Z,0.00
2022-11-27T03:14:48.197Z,0.00
2022-11-27T03:15:48.083Z,0.00
2022-11-27T03:16:47.987Z,0.00
2022-11-27T03:17:47.944Z,0.00
2022-11-27T03:18:47.879Z,0.00
2022-11-27T03:19:47.815Z,0.00
2022-11-27T03:20:47.753Z,0.00
2022-11-27T03:21:47.704Z,0.00
2022-11-27T03:22:47.636Z,0.00
2022-11-27T03:23:47.591Z,0.00
2022-11-27T03:24:47.519Z,0.00
2022-11-27T03:25:47.457Z,0.00
2022-11-27T03:26:47.393Z,0.00
2022-11-27T03:27:47.340Z,0.00
2022-11-27T03:28:47.295Z,0.00
2022-11-27T03:29:47.220Z,0.00
2022-11-27T03:30:47.255Z,0.00
2022-11-27T03:31:47.146Z,0.00
2022-11-27T03:32:47.039Z,0.00
2022-11-27T03:33:47.003Z,0.00
2022-11-27T03:34:46.999Z,0.00
2022-11-27T03:35:46.866Z,0.00
2022-11-27T03:36:46.806Z,0.00
2022-11-27T03:37:46.752Z,0.00
2022-11-27T03:38:46.694Z,0.00
2022-11-27T03:39:46.650Z,0.00
2022-11-27T03:40:46.578Z,0.00
2022-11-27T03:41:46.512Z,0.00
2022-11-27T03:42:46.454Z,0.00
2022-11-27T03:43:46.398Z,0.00
2022-11-27T03:44:46.355Z,0.00
2022-11-27T03:45:46.273Z,0.00
2022-11-27T03:46:46.394Z,0.00
2022-11-27T03:47:46.247Z,0.00
2022-11-27T03:48:46.097Z,0.00
2022-11-27T03:49:46.050Z,0.00
2022-11-27T03:50:45.976Z,0.00
2022-11-27T03:51:45.917Z,0.00
2022-11-27T03:52:45.858Z,0.00
2022-11-27T03:53:45.812Z,0.00
2022-11-27T03:54:45.755Z,0.00
2022-11-27T03:55:45.696Z,0.00
2022-11-27T03:56:45.645Z,0.00
2022-11-27T03:57:45.603Z,0.00
2022-11-27T03:58:45.513Z,0.00
2022-11-27T03:59:45.448Z,0.00
2022-11-27T04:00:45.387Z,0.00
2022-11-27T04:01:45.397Z,0.00
2022-11-27T04:02:45.363Z,0.00
2022-11-27T04:03:45.284Z,0.00
2022-11-27T04:04:45.152Z,0.00
2022-11-27T04:05:45.094Z,0.00
2022-11-27T04:06:45.047Z,0.00
2022-11-27T04:07:45.006Z,0.00
2022-11-27T04:08:44.916Z,0.00
2022-11-27T04:09:44.854Z,0.00
2022-11-27T04:10:44.808Z,0.00
2022-11-27T04:11:44.759Z,0.00
2022-11-27T04:12:44.681Z,0.00
2022-11-27T04:13:44.621Z,0.00
2022-11-27T04:14:53.677Z,0.00
2022-11-27T04:15:44.571Z,0.00
2022-11-27T04:16:44.550Z,0.00
2022-11-27T04:17:44.420Z,0.00
2022-11-27T04:18:44.453Z,0.00
2022-11-27T04:19:44.306Z,0.00
2022-11-27T04:20:44.236Z,0.00
2022-11-27T04:21:44.208Z,0.00
2022-11-27T04:22:44.114Z,0.00
2022-11-27T04:23:44.064Z,0.00
2022-11-27T04:24:44.003Z,0.00
2022-11-27T04:25:43.967Z,0.00
2022-11-27T04:26:43.882Z,0.00
2022-11-27T04:27:43.820Z,0.00
2022-11-27T04:28:43.795Z,0.00
2022-11-27T04:29:43.698Z,0.00
2022-11-27T04:30:43.640Z,0.00
2022-11-27T04:31:43.638Z,0.00
2022-11-27T04:32:43.536Z,0.00
2022-11-27T04:33:43.495Z,0.00
2022-11-27T04:34:43.504Z,0.00
2022-11-27T04:35:43.353Z,0.00
2022-11-27T04:36:43.294Z,0.00
2022-11-27T04:37:43.249Z,0.00
2022-11-27T04:38:43.357Z,0.00
2022-11-27T04:39:43.126Z,0.00
2022-11-27T04:40:43.074Z,0.00
2022-11-27T04:41:43.004Z,0.00
2022-11-27T04:42:42.956Z,0.00
2022-11-27T04:43:42.883Z,0.00
2022-11-27T04:44:43.196Z,0.00
2022-11-27T04:45:42.758Z,0.00
2022-11-27T04:46:42.807Z,0.00
2022-11-27T04:47:42.644Z,0.00
2022-11-27T04:48:42.593Z,0.00
2022-11-27T04:49:42.535Z,0.00
2022-11-27T04:50:42.550Z,0.00
2022-11-27T04:51:42.391Z,0.00
2022-11-27T04:52:42.344Z,0.00
2022-11-27T04:53:42.291Z,0.00
2022-11-27T04:54:42.588Z,0.00
2022-11-27T04:55:42.176Z,0.00
2022-11-27T04:56:42.118Z,0.00
2022-11-27T04:57:42.045Z,0.00
2022-11-27T04:58:42.004Z,0.00
2022-11-27T04:59:41.920Z,0.00
2022-11-27T05:00:41.910Z,0.00
2022-11-27T05:01:41.826Z,0.00
2022-11-27T05:02:41.876Z,0.00
2022-11-27T05:03:41.693Z,0.00
2022-11-27T05:04:41.840Z,0.00
2022-11-27T05:05:41.547Z,0.00
2022-11-27T05:06:47.423Z,0.00
2022-11-27T05:07:41.591Z,0.00
2022-11-27T05:08:41.409Z,0.00
2022-11-27T05:09:41.321Z,0.00
2022-11-27T05:10:41.271Z,0.00
2022-11-27T05:11:41.246Z,0.00
2022-11-27T05:12:41.189Z,0.00
2022-11-27T05:13:41.099Z,0.00
2022-11-27T05:14:41.438Z,0.00
2022-11-27T05:15:40.976Z,0.00
2022-11-27T05:16:40.963Z,0.00
2022-11-27T05:17:40.851Z,0.00
2022-11-27T05:18:40.822Z,0.00
2022-11-27T05:19:40.764Z,0.00
2022-11-27T05:20:40.681Z,0.00
2022-11-27T05:21:40.640Z,0.00
2022-11-27T05:22:40.552Z,0.00
2022-11-27T05:23:40.622Z,0.00
2022-11-27T05:24:40.860Z,0.00
2022-11-27T05:25:40.384Z,0.00
2022-11-27T05:26:40.349Z,0.00
2022-11-27T05:27:40.259Z,0.00
2022-11-27T05:28:40.212Z,0.00
2022-11-27T05:29:40.130Z,0.00
2022-11-27T05:30:40.114Z,0.00
2022-11-27T05:31:40.092Z,0.00
2022-11-27T05:32:39.962Z,0.00
2022-11-27T05:33:39.921Z,0.00
2022-11-27T05:34:40.192Z,0.00
2022-11-27T05:35:39.785Z,0.00
2022-11-27T05:36:39.752Z,0.00
2022-11-27T05:37:39.679Z,0.00
2022-11-27T05:38:39.636Z,0.00
2022-11-27T05:39:39.628Z,0.00
2022-11-27T05:40:39.468Z,0.00
2022-11-27T05:41:39.423Z,0.00
2022-11-27T05:42:39.347Z,0.00
2022-11-27T05:43:39.333Z,0.00
2022-11-27T05:44:39.581Z,0.00
2022-11-27T05:45:39.209Z,0.00
2022-11-27T05:46:39.119Z,0.00
2022-11-27T05:47:39.089Z,0.00
2022-11-27T05:48:39.033Z,0.00
2022-11-27T05:49:38.952Z,0.00
2022-11-27T05:50:38.894Z,0.00
2022-11-27T05:51:38.836Z,0.00
2022-11-27T05:52:38.798Z,0.00
2022-11-27T05:53:38.719Z,0.00
2022-11-27T05:54:39.079Z,0.00
2022-11-27T05:55:38.712Z,0.00
2022-11-27T05:56:38.537Z,0.00
2022-11-27T05:57:38.458Z,0.00
2022-11-27T05:58:38.418Z,0.00
2022-11-27T05:59:38.388Z,0.00
2022-11-27T06:00:38.289Z,0.00
2022-11-27T06:01:38.332Z,0.00
2022-11-27T06:02:38.327Z,0.00
2022-11-27T06:03:38.187Z,0.00
2022-11-27T06:04:38.187Z,0.00
2022-11-27T06:05:38.006Z,0.00
2022-11-27T06:06:37.958Z,0.00
2022-11-27T06:07:37.938Z,0.00
2022-11-27T06:08:37.838Z,0.00
2022-11-27T06:09:37.763Z,0.00
2022-11-27T06:10:37.703Z,0.00
2022-11-27T06:11:37.753Z,0.00
2022-11-27T06:12:37.609Z,4.00
2022-11-27T06:13:37.527Z,0.00
2022-11-27T06:14:37.486Z,0.00
2022-11-27T06:15:37.402Z,4.00
2022-11-27T06:16:37.430Z,0.00
2022-11-27T06:17:37.284Z,0.00
2022-11-27T06:18:37.234Z,4.00
2022-11-27T06:19:37.164Z,4.00
2022-11-27T06:20:42.204Z,4.00
2022-11-27T06:21:37.029Z,8.00
2022-11-27T06:22:36.995Z,4.00
2022-11-27T06:23:36.943Z,8.00
2022-11-27T06:24:36.856Z,8.00
2022-11-27T06:25:36.817Z,12.00
2022-11-27T06:26:36.881Z,12.00
2022-11-27T06:27:36.757Z,16.00
2022-11-27T06:28:36.631Z,20.00
2022-11-27T06:29:36.587Z,24.00
2022-11-27T06:30:36.508Z,28.00
2022-11-27T06:31:36.522Z,32.00
2022-11-27T06:32:36.392Z,40.00
2022-11-27T06:33:36.340Z,48.00
2022-11-27T06:34:36.313Z,56.00
2022-11-27T06:35:36.226Z,68.00
2022-11-27T06:36:36.170Z,76.00
2022-11-27T06:37:36.078Z,88.00
2022-11-27T06:38:36.038Z,92.00
2022-11-27T06:39:36.047Z,96.00
2022-11-27T06:40:35.913Z,100.00
2022-11-27T06:41:35.866Z,112.00
2022-11-27T06:42:35.783Z,132.00
2022-11-27T06:43:35.843Z,148.00
2022-11-27T06:44:35.702Z,160.00
2022-11-27T06:45:35.649Z,164.00
2022-11-27T06:46:35.561Z,168.00
2022-11-27T06:47:35.536Z,176.00
2022-11-27T06:48:35.458Z,192.00
2022-11-27T06:49:35.387Z,204.00
2022-11-27T06:50:35.340Z,224.00
2022-11-27T06:51:35.262Z,240.00
2022-11-27T06:52:40.126Z,264.00
2022-11-27T06:53:35.161Z,284.00
2022-11-27T06:54:35.092Z,316.00
2022-11-27T06:55:35.022Z,348.00
2022-11-27T06:56:34.959Z,388.00
2022-11-27T06:57:34.929Z,436.00
2022-11-27T06:58:34.869Z,484.00
2022-11-27T06:59:34.877Z,536.00
2022-11-27T07:00:34.784Z,592.00
2022-11-27T07:01:34.731Z,652.00
2022-11-27T07:02:34.678Z,708.00
2022-11-27T07:03:34.549Z,776.00
2022-11-27T07:04:34.500Z,840.00
2022-11-27T07:05:34.430Z,904.00
2022-11-27T07:06:34.373Z,972.00
2022-11-27T07:07:34.398Z,1048.00
2022-11-27T07:08:34.260Z,1120.00
2022-11-27T07:09:34.227Z,1196.00
2022-11-27T07:10:34.151Z,1268.00
2022-11-27T07:11:34.073Z,1336.00
2022-11-27T07:12:33.993Z,1412.00
2022-11-27T07:13:33.984Z,1488.00
2022-11-27T07:14:33.925Z,1568.00
2022-11-27T07:15:33.924Z,1640.00
2022-11-27T07:16:33.860Z,1728.00
2022-11-27T07:17:33.721Z,1812.00
2022-11-27T07:18:33.685Z,1900.00
2022-11-27T07:19:33.603Z,1988.00
2022-11-27T07:20:33.542Z,2064.00
2022-11-27T07:21:33.484Z,2156.00
2022-11-27T07:22:33.424Z,2256.00
2022-11-27T07:23:33.397Z,2352.00
2022-11-27T07:24:33.305Z,2460.00
2022-11-27T07:25:33.242Z,2580.00
2022-11-27T07:26:33.179Z,2704.00
2022-11-27T07:27:33.129Z,2800.00
2022-11-27T07:28:33.100Z,2880.00
2022-11-27T07:29:33.016Z,2972.00
2022-11-27T07:30:32.958Z,3092.00
2022-11-27T07:31:33.009Z,3172.00
2022-11-27T07:32:32.838Z,3304.00
2022-11-27T07:33:32.783Z,3436.00
2022-11-27T07:34:32.758Z,3608.00
2022-11-27T07:35:32.657Z,3792.00
2022-11-27T07:36:32.613Z,4044.00
2022-11-27T07:37:32.530Z,4244.00
2022-11-27T07:38:32.489Z,4440.00
2022-11-27T07:40:00.378Z,4680.00
2022-11-27T07:40:32.383Z,5028.00
2022-11-27T07:41:34.152Z,5452.00
2022-11-27T07:42:39.639Z,5988.00
2022-11-27T07:43:32.181Z,6844.00
2022-11-27T07:44:32.158Z,9180.00
2022-11-27T07:45:32.084Z,12608.00
2022-11-27T07:46:32.003Z,18944.00
2022-11-27T07:47:37.905Z,27456.00
2022-11-27T07:48:31.973Z,32448.00
2022-11-27T07:49:31.836Z,33568.00
2022-11-27T07:50:31.751Z,33344.00
2022-11-27T07:51:31.751Z,32224.00
2022-11-27T07:52:32.898Z,33696.00
2022-11-27T07:53:31.610Z,36544.00
2022-11-27T07:54:31.530Z,38304.00
2022-11-27T07:55:31.484Z,41504.00
2022-11-27T07:56:31.442Z,46016.00
2022-11-27T07:57:31.347Z,46304.00
2022-11-27T07:58:31.322Z,41824.00
2022-11-27T07:59:31.247Z,32480.00
2022-11-27T08:00:31.225Z,21504.00
2022-11-27T08:01:31.198Z,17472.00
2022-11-27T08:02:31.104Z,17216.00
2022-11-27T08:03:31.062Z,17312.00
2022-11-27T08:04:31.184Z,17312.00
2022-11-27T08:05:30.924Z,17600.00
2022-11-27T08:06:30.902Z,17824.00
2022-11-27T08:07:30.823Z,17824.00
2022-11-27T08:08:30.774Z,18144.00
2022-11-27T08:09:31.209Z,18496.00
2022-11-27T08:10:30.667Z,18656.00
2022-11-27T08:11:30.650Z,19232.00
2022-11-27T08:12:30.585Z,19520.00
2022-11-27T08:13:30.514Z,20160.00
2022-11-27T08:14:30.454Z,20992.00
2022-11-27T08:15:30.372Z,21312.00
2022-11-27T08:16:30.483Z,16416.00
2022-11-27T08:17:30.266Z,13108.00
2022-11-27T08:18:30.277Z,12444.00
2022-11-27T08:19:30.344Z,13472.00
2022-11-27T08:20:36.087Z,12492.00
2022-11-27T08:21:30.171Z,14016.00
2022-11-27T08:22:30.023Z,13572.00
2022-11-27T08:23:29.990Z,20992.00
2022-11-27T08:24:29.952Z,22304.00
2022-11-27T08:25:29.901Z,23872.00
2022-11-27T08:26:29.831Z,30400.00
2022-11-27T08:27:29.769Z,32512.00
2022-11-27T08:28:29.717Z,32704.00
2022-11-27T08:29:33.865Z,33376.00
2022-11-27T08:30:29.634Z,34624.00
2022-11-27T08:31:29.608Z,34688.00
2022-11-27T08:32:29.550Z,33312.00
2022-11-27T08:33:29.471Z,32384.00
2022-11-27T08:34:29.411Z,39072.00
2022-11-27T08:35:29.350Z,39456.00
2022-11-27T08:36:29.283Z,39936.00
2022-11-27T08:37:29.327Z,41696.00
2022-11-27T08:38:29.227Z,41056.00
2022-11-27T08:39:29.152Z,41120.00
2022-11-27T08:40:29.154Z,43488.00
2022-11-27T08:41:29.034Z,44416.00
2022-11-27T08:42:29.013Z,31648.00
2022-11-27T08:43:28.968Z,34240.00
2022-11-27T08:44:28.905Z,35232.00
2022-11-27T08:45:28.912Z,36448.00
2022-11-27T08:46:28.818Z,30976.00
2022-11-27T08:47:28.828Z,28544.00
2022-11-27T08:48:28.677Z,36224.00
2022-11-27T08:49:28.684Z,42752.00
2022-11-27T08:50:28.632Z,46720.00
2022-11-27T08:51:28.548Z,48448.00
2022-11-27T08:52:28.514Z,45664.00
2022-11-27T08:53:28.554Z,35808.00
2022-11-27T08:54:28.438Z,37344.00
2022-11-27T08:55:28.368Z,27232.00
2022-11-27T08:56:28.295Z,27360.00
2022-11-27T08:57:28.269Z,35264.00
2022-11-27T08:58:28.239Z,19168.00
2022-11-27T08:59:28.201Z,31104.00
2022-11-27T09:00:28.403Z,40960.00
2022-11-27T09:01:28.103Z,50176.00
2022-11-27T09:02:28.061Z,42624.00
2022-11-27T09:03:27.962Z,39584.00
2022-11-27T09:04:27.973Z,26144.00
2022-11-27T09:05:27.877Z,18752.00
2022-11-27T09:06:27.809Z,21248.00
2022-11-27T09:07:27.790Z,32000.00
2022-11-27T09:08:27.710Z,37472.00
2022-11-27T09:09:27.784Z,56896.00
2022-11-27T09:10:27.600Z,63552.00
2022-11-27T09:11:27.571Z,60832.00
2022-11-27T09:12:27.539Z,60160.00
2022-11-27T09:13:27.481Z,57248.00
2022-11-27T09:14:27.466Z,41536.00
2022-11-27T09:15:27.373Z,29600.00
2022-11-27T09:16:27.362Z,22944.00
2022-11-27T09:17:27.287Z,28160.00
2022-11-27T09:18:27.252Z,22080.00
2022-11-27T09:19:27.180Z,10672.00
2022-11-27T09:20:27.150Z,8236.00
2022-11-27T09:21:27.086Z,5664.00
2022-11-27T09:22:27.009Z,5112.00
2022-11-27T09:23:26.996Z,5332.00
2022-11-27T09:24:26.902Z,7748.00
2022-11-27T09:25:26.969Z,11108.00
2022-11-27T09:26:26.827Z,13972.00
2022-11-27T09:27:26.768Z,15360.00
2022-11-27T09:28:31.175Z,26816.00
2022-11-27T09:29:26.733Z,24864.00
2022-11-27T09:30:26.642Z,29152.00
2022-11-27T09:31:26.776Z,32672.00
2022-11-27T09:32:26.579Z,28416.00
2022-11-27T09:33:26.472Z,29824.00
2022-11-27T09:34:26.454Z,31520.00
2022-11-27T09:35:26.499Z,33536.00
2022-11-27T09:36:26.327Z,35808.00
2022-11-27T09:37:26.289Z,24576.00
2022-11-27T09:38:26.195Z,18016.00
2022-11-27T09:39:26.188Z,11512.00
2022-11-27T09:40:26.113Z,19456.00
2022-11-27T09:41:26.174Z,26016.00
2022-11-27T09:42:25.998Z,22240.00
2022-11-27T09:43:25.937Z,30880.00
2022-11-27T09:44:25.905Z,25728.00
2022-11-27T09:45:25.949Z,24032.00
2022-11-27T09:46:26.032Z,19616.00
2022-11-27T09:47:25.760Z,15168.00
2022-11-27T09:48:25.727Z,27360.00
2022-11-27T09:49:25.673Z,33888.00
2022-11-27T09:50:25.596Z,34176.00
2022-11-27T09:51:25.549Z,18528.00
2022-11-27T09:52:25.553Z,15840.00
2022-11-27T09:53:25.454Z,12156.00
2022-11-27T09:54:25.435Z,9908.00
2022-11-27T09:55:25.392Z,10964.00
2022-11-27T09:56:25.322Z,10592.00
2022-11-27T09:57:25.353Z,11236.00
2022-11-27T09:58:25.221Z,10908.00
2022-11-27T09:59:25.154Z,13008.00
2022-11-27T10:00:25.133Z,16032.00
2022-11-27T10:01:28.997Z,18176.00
2022-11-27T10:02:25.137Z,27744.00
2022-11-27T10:03:25.011Z,25056.00
2022-11-27T10:04:24.907Z,26976.00
2022-11-27T10:05:24.859Z,26240.00
2022-11-27T10:06:24.827Z,28064.00
2022-11-27T10:07:24.847Z,24608.00
2022-11-27T10:08:24.745Z,25472.00
2022-11-27T10:09:24.804Z,26304.00
2022-11-27T10:10:24.604Z,25376.00
2022-11-27T10:11:24.538Z,20032.00
2022-11-27T10:12:24.514Z,16992.00
2022-11-27T10:13:24.553Z,11192.00
2022-11-27T10:14:24.410Z,8980.00
2022-11-27T10:15:24.353Z,8252.00
2022-11-27T10:16:24.374Z,10732.00
2022-11-27T10:17:24.311Z,15072.00
2022-11-27T10:18:24.208Z,27264.00
2022-11-27T10:19:24.140Z,28160.00
2022-11-27T10:20:24.090Z,28992.00
2022-11-27T10:21:24.080Z,32128.00
2022-11-27T10:22:24.010Z,31776.00
2022-11-27T10:23:23.973Z,32992.00
2022-11-27T10:24:23.917Z,26080.00
2022-11-27T10:25:23.867Z,29248.00
2022-11-27T10:26:23.907Z,20640.00
2022-11-27T10:27:23.764Z,11796.00
2022-11-27T10:28:23.735Z,7564.00
2022-11-27T10:29:23.728Z,7176.00
2022-11-27T10:30:23.612Z,6900.00
2022-11-27T10:31:23.655Z,7144.00
2022-11-27T10:32:53.361Z,7156.00
2022-11-27T10:33:23.463Z,6900.00
2022-11-27T10:34:23.423Z,6740.00
2022-11-27T10:35:23.360Z,6568.00
2022-11-27T10:36:23.294Z,5776.00
2022-11-27T10:37:23.372Z,5312.00
2022-11-27T10:38:23.197Z,5484.00
2022-11-27T10:39:23.166Z,5660.00
2022-11-27T10:40:23.137Z,5656.00
2022-11-27T10:41:50.467Z,5344.00
2022-11-27T10:42:23.031Z,4896.00
2022-11-27T10:43:22.979Z,4676.00
2022-11-27T10:44:22.898Z,4516.00
2022-11-27T10:45:22.912Z,4400.00
2022-11-27T10:46:22.824Z,4320.00
2022-11-27T10:47:22.741Z,4324.00
2022-11-27T10:48:22.675Z,4404.00
2022-11-27T10:49:22.692Z,4412.00
2022-11-27T10:50:22.600Z,4304.00
2022-11-27T10:51:22.496Z,4284.00
2022-11-27T10:52:22.475Z,4252.00
2022-11-27T10:53:22.408Z,4284.00
2022-11-27T10:54:22.484Z,4288.00
2022-11-27T10:55:22.281Z,4160.00
2022-11-27T10:56:22.301Z,4060.00
2022-11-27T10:57:22.153Z,3944.00
2022-11-27T10:58:22.129Z,3804.00
2022-11-27T10:59:22.087Z,3716.00
2022-11-27T11:00:22.014Z,3628.00
2022-11-27T11:01:22.056Z,3560.00
2022-11-27T11:02:21.958Z,3512.00
2022-11-27T11:03:21.874Z,3456.00
2022-11-27T11:04:37.545Z,3400.00
2022-11-27T11:05:40.946Z,3344.00
2022-11-27T11:06:23.044Z,3284.00
2022-11-27T11:07:21.635Z,3244.00
2022-11-27T11:08:21.592Z,3212.00
2022-11-27T11:09:21.516Z,3232.00
2022-11-27T11:10:21.479Z,3536.00
2022-11-27T11:11:21.393Z,4096.00
2022-11-27T11:12:21.405Z,5364.00
2022-11-27T11:13:21.320Z,5252.00
2022-11-27T11:14:21.358Z,5516.00
2022-11-27T11:15:21.218Z,4736.00
2022-11-27T11:16:24.400Z,4048.00
2022-11-27T11:17:21.228Z,3816.00
2022-11-27T11:18:21.085Z,3904.00
2022-11-27T11:19:20.993Z,3992.00
2022-11-27T11:20:20.956Z,4020.00
2022-11-27T11:21:20.835Z,4068.00
2022-11-27T11:22:20.811Z,4104.00
2022-11-27T11:23:20.753Z,4136.00
2022-11-27T11:24:20.727Z,4156.00
2022-11-27T11:25:20.671Z,4184.00
2022-11-27T11:26:20.573Z,4176.00
2022-11-27T11:27:20.590Z,4176.00
2022-11-27T11:28:20.525Z,4172.00
2022-11-27T11:29:20.632Z,4188.00
2022-11-27T11:30:20.364Z,4176.00
2022-11-27T11:31:20.306Z,4164.00
2022-11-27T11:32:20.239Z,4132.00
2022-11-27T11:33:20.264Z,4100.00
2022-11-27T11:34:20.103Z,4068.00
2022-11-27T11:35:20.168Z,4016.00
2022-11-27T11:36:20.039Z,3944.00
2022-11-27T11:37:19.973Z,3880.00
2022-11-27T11:38:19.914Z,3804.00
2022-11-27T11:39:19.868Z,3716.00
2022-11-27T11:40:19.862Z,3640.00
2022-11-27T11:41:19.746Z,3556.00
2022-11-27T11:42:19.684Z,3488.00
2022-11-27T11:43:19.655Z,3460.00
2022-11-27T11:44:19.540Z,3424.00
2022-11-27T11:45:19.525Z,3360.00
2022-11-27T11:46:19.519Z,3320.00
2022-11-27T11:47:19.358Z,3260.00
2022-11-27T11:48:19.370Z,3220.00
2022-11-27T11:49:19.344Z,3196.00
2022-11-27T11:50:19.242Z,3180.00
2022-11-27T11:51:19.148Z,3180.00
2022-11-27T11:52:19.156Z,3184.00
2022-11-27T11:53:19.068Z,3176.00
2022-11-27T11:54:19.001Z,3176.00
2022-11-27T11:55:18.921Z,3168.00
2022-11-27T11:56:18.899Z,3148.00
2022-11-27T11:57:18.830Z,3116.00
2022-11-27T11:58:18.785Z,3076.00
2022-11-27T11:59:18.741Z,3044.00
2022-11-27T12:00:18.646Z,3008.00
2022-11-27T12:01:26.983Z,2964.00
2022-11-27T12:02:18.552Z,2936.00
2022-11-27T12:03:18.509Z,2912.00
2022-11-27T12:04:18.509Z,2892.00
2022-11-27T12:05:18.504Z,2864.00
2022-11-27T12:06:18.333Z,2852.00
2022-11-27T12:07:18.301Z,2840.00
2022-11-27T12:08:18.204Z,2804.00
2022-11-27T12:09:18.135Z,2788.00
2022-11-27T12:10:18.075Z,2756.00
2022-11-27T12:11:18.053Z,2728.00
2022-11-27T12:12:17.963Z,2692.00
2022-11-27T12:13:18.000Z,2660.00
2022-11-27T12:14:17.854Z,2624.00
2022-11-27T12:15:17.796Z,2584.00
2022-11-27T12:16:17.807Z,2552.00
2022-11-27T12:17:17.682Z,2520.00
2022-11-27T12:18:17.653Z,2484.00
2022-11-27T12:19:17.571Z,2444.00
2022-11-27T12:20:17.556Z,2416.00
2022-11-27T12:21:17.595Z,2380.00
2022-11-27T12:22:17.411Z,2360.00
2022-11-27T12:23:17.405Z,2336.00
2022-11-27T12:24:17.308Z,2324.00
2022-11-27T12:25:17.238Z,2300.00
2022-11-27T12:26:17.220Z,2308.00
2022-11-27T12:27:17.160Z,2296.00
2022-11-27T12:28:17.080Z,2272.00
2022-11-27T12:29:17.008Z,2260.00
2022-11-27T12:30:16.978Z,2252.00
2022-11-27T12:31:16.918Z,2232.00
2022-11-27T12:32:16.852Z,2224.00
2022-11-27T12:33:16.824Z,2232.00
2022-11-27T12:34:16.733Z,2244.00
2022-11-27T12:35:16.667Z,2220.00
2022-11-27T12:36:16.628Z,2212.00
2022-11-27T12:37:16.666Z,2296.00